Time;durP1;ratioP1;P1;durP2;ratioP2;P2;SDS_P1;SDS_P2;PMS_P1;PMS_P2;Temp;Humidity;BMP_temperature;BMP_pressure;BME280_temperature;BME280_humidity;BME280_pressure;Samples;Min_cycle;Max_cycle;Signal;HPM_P1;HPM_P2
2022/06/11 00:00:06;;;;;;;6.72;3.75;;;17.20;99.90;;;;;;4776863;29;20461;-87
2022/06/11 00:02:31;;;;;;;6.65;4.60;;;17.20;99.90;;;;;;4791913;29;20062;-89
2022/06/11 00:04:57;;;;;;;6.55;4.25;;;17.20;99.90;;;;;;4791744;29;20429;-88
2022/06/11 00:07:24;;;;;;;6.38;4.43;;;17.10;99.90;;;;;;4790675;29;20050;-88
2022/06/11 00:09:51;;;;;;;6.93;4.50;;;17.10;99.90;;;;;;4791292;29;20105;-88
2022/06/11 00:12:18;;;;;;;5.68;4.20;;;17.10;99.90;;;;;;4791266;29;20058;-90
2022/06/11 00:14:46;;;;;;;7.97;4.55;;;17.00;99.90;;;;;;4776829;29;20059;-86
2022/06/11 00:17:15;;;;;;;6.15;4.32;;;17.00;99.90;;;;;;4776392;29;20046;-88
2022/06/11 00:19:47;;;;;;;6.55;4.70;;;16.80;99.90;;;;;;4792199;29;20656;-89
2022/06/11 00:22:14;;;;;;;5.45;4.43;;;16.80;99.90;;;;;;4777409;29;20063;-85
2022/06/11 00:24:41;;;;;;;6.60;4.57;;;16.70;99.90;;;;;;4786699;29;20062;-86
2022/06/11 00:27:08;;;;;;;5.97;5.05;;;16.70;99.90;;;;;;4796404;29;20050;-87
2022/06/11 00:29:35;;;;;;;7.90;5.00;;;16.80;99.90;;;;;;4792978;29;20522;-90
2022/06/11 00:32:06;;;;;;;8.70;5.30;;;16.70;99.90;;;;;;4775936;29;20138;-89
2022/06/11 00:34:33;;;;;;;7.93;4.90;;;16.80;99.90;;;;;;4776160;29;20480;-88
2022/06/11 00:36:59;;;;;;;6.10;4.88;;;16.70;99.90;;;;;;4791614;29;20054;-90
2022/06/11 00:39:33;;;;;;;10.18;5.90;;;16.60;99.90;;;;;;4776302;29;20054;-89
2022/06/11 00:42:07;;;;;;;7.30;5.57;;;16.60;99.90;;;;;;4776200;29;20058;-90
2022/06/11 00:44:33;;;;;;;7.93;5.45;;;16.60;99.90;;;;;;4791590;29;20291;-87
2022/06/11 00:47:04;;;;;;;9.07;5.53;;;16.50;99.90;;;;;;4791305;29;20416;-88
2022/06/11 00:49:55;;;;;;;10.05;5.65;;;16.50;99.90;;;;;;4796135;29;20066;-87
2022/06/11 00:52:30;;;;;;;7.05;5.22;;;16.40;99.90;;;;;;4783623;29;20059;-88
2022/06/11 00:55:22;;;;;;;7.25;4.80;;;16.40;99.90;;;;;;4791257;29;20138;-87
2022/06/11 00:58:07;;;;;;;7.38;5.15;;;16.30;99.90;;;;;;4790795;29;20530;-88
2022/06/11 01:00:41;;;;;;;8.25;4.63;;;16.10;99.90;;;;;;4775734;29;20046;-90
2022/06/11 01:03:09;;;;;;;9.60;5.22;;;16.10;99.90;;;;;;4775678;29;20151;-87
2022/06/11 01:05:41;;;;;;;8.18;4.07;;;16.00;99.90;;;;;;4790446;29;20212;-88
2022/06/11 01:08:39;;;;;;;9.13;4.13;;;16.00;99.90;;;;;;4790298;29;20126;-89
2022/06/11 01:11:50;;;;;;;7.97;3.47;;;15.90;99.90;;;;;;4794089;29;20054;-87
2022/06/11 01:14:46;;;;;;;8.90;3.78;;;15.90;99.90;;;;;;4776181;29;20086;-88
2022/06/11 01:17:26;;;;;;;9.43;3.85;;;15.80;99.90;;;;;;4790307;29;20051;-88
2022/06/11 01:20:16;;;;;;;5.93;2.92;;;15.70;99.90;;;;;;4789896;29;20050;-87
2022/06/11 01:23:11;;;;;;;8.65;3.35;;;15.70;99.90;;;;;;4790507;29;20115;-88
2022/06/11 01:25:47;;;;;;;5.63;2.75;;;15.60;99.90;;;;;;4775510;29;20116;-89
2022/06/11 01:28:25;;;;;;;7.82;3.05;;;15.60;99.90;;;;;;4775340;29;20054;-88
2022/06/11 01:31:30;;;;;;;7.32;2.40;;;15.50;99.90;;;;;;4790195;29;20067;-90
2022/06/11 01:34:20;;;;;;;4.63;2.22;;;15.40;99.90;;;;;;4789757;29;20073;-86
2022/06/11 01:36:49;;;;;;;5.07;2.25;;;15.40;99.90;;;;;;4790325;29;20385;-87
2022/06/11 01:39:24;;;;;;;6.47;2.28;;;15.30;99.90;;;;;;4789676;29;20055;-89
2022/06/11 01:42:00;;;;;;;6.05;2.20;;;15.20;99.90;;;;;;4804944;29;20054;-88
2022/06/11 01:44:36;;;;;;;7.75;2.20;;;15.20;99.90;;;;;;4789874;29;20066;-88
2022/06/11 01:47:03;;;;;;;7.82;2.70;;;15.10;99.90;;;;;;4790355;29;20054;-87
2022/06/11 01:49:29;;;;;;;5.97;1.70;;;15.10;99.90;;;;;;4789509;29;20058;-87
2022/06/11 01:52:13;;;;;;;7.22;2.00;;;15.00;99.90;;;;;;4789904;29;20059;-88
2022/06/11 01:54:44;;;;;;;9.57;2.20;;;15.00;99.90;;;;;;4775199;29;20055;-89
2022/06/11 01:57:19;;;;;;;6.15;2.22;;;15.00;99.90;;;;;;4789455;29;20050;-87
2022/06/11 02:00:07;;;;;;;5.13;2.00;;;15.00;99.90;;;;;;4790097;29;20054;-89
2022/06/11 02:03:10;;;;;;;7.82;2.38;;;14.80;99.90;;;;;;4774907;29;20061;-89
2022/06/11 02:06:24;;;;;;;4.88;1.98;;;14.90;99.90;;;;;;4775167;29;20054;-86
2022/06/11 02:09:09;;;;;;;6.43;2.05;;;14.00;99.90;;;;;;4770747;29;20515;-87
2022/06/11 02:11:40;;;;;;;4.03;1.58;;;14.70;99.90;;;;;;4774944;29;20055;-88
2022/06/11 02:14:44;;;;;;;8.70;2.30;;;14.60;99.90;;;;;;4790091;29;20145;-90
2022/06/11 02:17:24;;;;;;;6.82;1.83;;;14.60;99.90;;;;;;4789214;29;20086;-87
2022/06/11 02:20:11;;;;;;;4.78;1.70;;;14.50;99.90;;;;;;4789360;29;20133;-89
2022/06/11 02:22:52;;;;;;;4.43;1.80;;;14.50;99.90;;;;;;4789427;29;20055;-88
2022/06/11 02:25:28;;;;;;;3.90;1.60;;;14.50;99.90;;;;;;4789351;29;20047;-89
2022/06/11 02:27:58;;;;;;;6.35;1.70;;;14.50;99.90;;;;;;4789457;29;20492;-89
2022/06/11 02:30:28;;;;;;;7.53;2.20;;;14.30;99.90;;;;;;4789156;29;20055;-87
2022/06/11 02:32:54;;;;;;;5.78;1.90;;;14.40;99.90;;;;;;4792944;29;20054;-89
2022/06/11 02:35:37;;;;;;;6.97;1.88;;;14.30;99.90;;;;;;4792570;29;20137;-89
2022/06/11 02:38:06;;;;;;;4.13;1.63;;;14.20;99.90;;;;;;4793324;29;20130;-88
2022/06/11 02:40:38;;;;;;;4.53;1.67;;;14.20;99.90;;;;;;4778091;29;20463;-88
2022/06/11 02:43:04;;;;;;;3.95;2.10;;;14.20;99.90;;;;;;4793174;29;20051;-89
2022/06/11 02:45:36;;;;;;;4.97;2.28;;;14.10;99.90;;;;;;4800268;29;20055;-85
2022/06/11 02:48:06;;;;;;;6.63;1.90;;;14.20;99.90;;;;;;4800893;29;20062;-90
2022/06/11 02:50:34;;;;;;;5.15;1.70;;;14.20;99.90;;;;;;4795959;29;20516;-90
2022/06/11 02:53:01;;;;;;;7.78;2.08;;;14.10;99.90;;;;;;4792476;29;20055;-87
2022/06/11 02:55:28;;;;;;;5.88;1.80;;;14.10;99.90;;;;;;4792743;29;20053;-88
2022/06/11 02:57:57;;;;;;;6.32;1.98;;;14.10;99.90;;;;;;4792894;29;20043;-90
2022/06/11 03:00:28;;;;;;;6.38;2.28;;;14.00;99.90;;;;;;4792229;29;20058;-90
2022/06/11 03:02:54;;;;;;;5.97;1.95;;;14.00;99.90;;;;;;4792633;29;20054;-87
2022/06/11 03:05:23;;;;;;;7.10;2.00;;;14.00;99.90;;;;;;4807300;29;20120;-89
2022/06/11 03:07:50;;;;;;;5.10;2.33;;;13.30;99.90;;;;;;4777075;29;20090;-88
2022/06/11 03:10:21;;;;;;;4.03;1.70;;;14.00;99.90;;;;;;4792196;29;20770;-90
2022/06/11 03:12:47;;;;;;;6.22;1.60;;;14.00;99.90;;;;;;4792331;29;20094;-87
2022/06/11 03:15:17;;;;;;;4.72;2.03;;;14.00;99.90;;;;;;4792297;29;20224;-90
2022/06/11 03:17:44;;;;;;;8.85;2.22;;;13.90;99.90;;;;;;4792032;29;20050;-88
2022/06/11 03:20:12;;;;;;;5.75;2.20;;;13.90;99.90;;;;;;4792244;29;20082;-87
2022/06/11 03:22:38;;;;;;;6.72;2.13;;;14.00;99.90;;;;;;4792242;29;20065;-87
2022/06/11 03:25:04;;;;;;;8.02;2.20;;;14.00;99.90;;;;;;4792093;29;20063;-87
2022/06/11 03:27:30;;;;;;;4.65;2.20;;;14.10;99.90;;;;;;4791517;29;20067;-88
2022/06/11 03:29:56;;;;;;;7.50;2.30;;;14.00;99.90;;;;;;4792102;29;20462;-90
2022/06/11 03:32:28;;;;;;;5.15;2.03;;;14.00;99.90;;;;;;4777327;29;20058;-90
2022/06/11 03:34:54;;;;;;;7.53;2.33;;;14.10;99.90;;;;;;4792087;29;20515;-86
2022/06/11 03:37:23;;;;;;;8.57;2.38;;;14.10;99.90;;;;;;4791807;29;20194;-87
2022/06/11 03:39:52;;;;;;;8.23;2.65;;;14.20;99.90;;;;;;4792164;29;20046;-87
2022/06/11 03:42:18;;;;;;;7.50;2.53;;;14.10;99.90;;;;;;4776633;29;20055;-88
2022/06/11 03:44:47;;;;;;;5.95;2.45;;;14.10;99.90;;;;;;4777313;29;20055;-90
2022/06/11 03:47:13;;;;;;;6.35;2.63;;;14.00;99.90;;;;;;4777076;29;20053;-87
2022/06/11 03:49:41;;;;;;;8.27;2.42;;;14.00;99.90;;;;;;4791848;29;20055;-88
2022/06/11 03:52:08;;;;;;;9.55;2.80;;;13.60;99.90;;;;;;4791902;29;20502;-87
2022/06/11 03:54:35;;;;;;;8.68;2.80;;;14.10;99.90;;;;;;4806627;29;20142;-88
2022/06/11 03:57:00;;;;;;;7.80;2.75;;;14.10;99.90;;;;;;4776699;29;20054;-89
2022/06/11 03:59:26;;;;;;;7.22;2.60;;;14.10;99.90;;;;;;4791357;29;20050;-87
2022/06/11 04:01:53;;;;;;;8.52;2.28;;;14.10;99.90;;;;;;4791665;29;20455;-88
2022/06/11 04:04:20;;;;;;;8.25;2.70;;;14.10;99.90;;;;;;4776702;29;20186;-90
2022/06/11 04:06:53;;;;;;;7.20;2.58;;;14.20;99.90;;;;;;4790961;29;20097;-87
2022/06/11 04:09:30;;;;;;;9.43;3.10;;;14.20;99.90;;;;;;4791561;29;20069;-87
2022/06/11 04:11:59;;;;;;;9.55;3.35;;;14.20;99.90;;;;;;4791460;29;20123;-87
2022/06/11 04:14:30;;;;;;;15.40;4.47;;;14.20;99.90;;;;;;4769843;29;20065;-87
2022/06/11 04:17:05;;;;;;;9.13;3.22;;;14.30;99.90;;;;;;4768140;29;20046;-89
2022/06/11 04:19:36;;;;;;;9.52;3.38;;;14.30;99.90;;;;;;4791241;29;20051;-90
2022/06/11 04:22:06;;;;;;;8.57;3.30;;;14.40;99.90;;;;;;4791422;29;20043;-87
2022/06/11 04:24:43;;;;;;;9.70;3.70;;;14.40;99.90;;;;;;4805666;29;20093;-89
2022/06/11 04:27:13;;;;;;;9.05;3.28;;;14.50;99.90;;;;;;4790816;29;20591;-90
2022/06/11 04:29:43;;;;;;;6.85;3.10;;;14.50;99.90;;;;;;4790693;29;20059;-87
2022/06/11 04:32:12;;;;;;;9.32;3.08;;;14.50;99.90;;;;;;4790933;29;20051;-90
2022/06/11 04:34:39;;;;;;;7.38;3.25;;;14.50;99.90;;;;;;4790850;29;20058;-88
2022/06/11 04:37:13;;;;;;;12.30;3.15;;;14.60;99.90;;;;;;4790754;29;20046;-89
2022/06/11 04:39:51;;;;;;;9.55;2.70;;;14.70;99.90;;;;;;4790784;29;20137;-89
2022/06/11 04:42:18;;;;;;;7.90;2.80;;;14.70;99.90;;;;;;4776122;29;20135;-89
2022/06/11 04:44:45;;;;;;;9.45;3.63;;;14.70;99.90;;;;;;4776200;29;20094;-91
2022/06/11 04:47:14;;;;;;;7.82;2.90;;;14.60;99.90;;;;;;4790757;29;20523;-88
2022/06/11 04:49:44;;;;;;;11.65;3.10;;;14.70;99.90;;;;;;4805419;29;20132;-87
2022/06/11 04:52:10;;;;;;;10.50;3.13;;;14.70;99.90;;;;;;4790655;29;20086;-87
2022/06/11 04:54:49;;;;;;;15.52;3.00;;;14.70;99.90;;;;;;4790034;29;20527;-87
2022/06/11 04:57:16;;;;;;;9.68;3.13;;;14.70;99.90;;;;;;4790506;29;20142;-90
2022/06/11 04:59:52;;;;;;;10.13;2.75;;;14.30;99.90;;;;;;4776469;29;20061;-86
2022/06/11 05:02:31;;;;;;;9.02;3.20;;;14.90;99.90;;;;;;4790436;29;20058;-85
2022/06/11 05:05:09;;;;;;;11.88;3.30;;;14.90;99.90;;;;;;4793858;29;20055;-84
2022/06/11 05:07:35;;;;;;;10.88;3.05;;;14.40;99.90;;;;;;4784895;29;20058;-86
2022/06/11 05:10:01;;;;;;;10.15;3.25;;;15.00;99.90;;;;;;4795159;29;20412;-87
2022/06/11 05:12:36;;;;;;;8.98;2.80;;;15.00;99.90;;;;;;4790287;29;20369;-87
2022/06/11 05:15:05;;;;;;;12.73;3.47;;;15.20;99.90;;;;;;4790530;29;20054;-87
2022/06/11 05:17:31;;;;;;;12.52;3.83;;;15.20;99.90;;;;;;4775927;29;20137;-85
2022/06/11 05:20:25;;;;;;;10.30;3.35;;;15.20;99.90;;;;;;4790649;29;20088;-87
2022/06/11 05:22:53;;;;;;;11.02;4.28;;;14.60;99.90;;;;;;4790532;29;20058;-88
2022/06/11 05:25:29;;;;;;;11.85;3.47;;;15.60;99.90;;;;;;4790688;29;20415;-88
2022/06/11 05:28:39;;;;;;;13.65;3.58;;;14.80;99.90;;;;;;4804643;29;20256;-88
2022/06/11 05:31:10;;;;;;;9.63;3.10;;;15.50;99.90;;;;;;4791044;29;20420;-88
2022/06/11 05:33:37;;;;;;;14.32;3.75;;;15.40;99.90;;;;;;4789697;29;20581;-89
2022/06/11 05:36:11;;;;;;;14.93;3.28;;;15.50;99.90;;;;;;4790405;29;20062;-89
2022/06/11 05:38:49;;;;;;;15.55;3.58;;;15.60;99.90;;;;;;4776974;29;20133;-89
2022/06/11 05:41:18;;;;;;;10.32;4.03;;;15.60;99.90;;;;;;4789438;29;20063;-90
2022/06/11 05:44:23;;;;;;;13.27;3.72;;;15.50;99.90;;;;;;4774843;29;20119;-88
2022/06/11 05:46:51;;;;;;;16.77;4.00;;;14.70;99.90;;;;;;4776255;29;20078;-88
2022/06/11 05:49:24;;;;;;;12.13;3.80;;;15.60;99.90;;;;;;4789793;29;20058;-88
2022/06/11 05:51:58;;;;;;;12.93;3.60;;;15.60;99.90;;;;;;4789506;29;20133;-88
2022/06/11 05:54:29;;;;;;;15.90;3.90;;;15.80;99.90;;;;;;4789741;29;20051;-87
2022/06/11 05:57:01;;;;;;;12.38;3.10;;;15.70;99.90;;;;;;4789411;29;20043;-89
2022/06/11 05:59:43;;;;;;;14.38;3.80;;;15.70;99.90;;;;;;4789624;29;20054;-87
2022/06/11 06:02:21;;;;;;;13.52;3.90;;;15.90;99.90;;;;;;4789775;29;20137;-88
2022/06/11 06:05:09;;;;;;;;;;;;;;;;;;;;;
2022/06/11 06:07:53;;;;;;;15.88;4.53;;;16.00;99.90;;;;;;4809092;29;20499;-88
2022/06/11 06:10:49;;;;;;;12.82;3.78;;;16.00;99.90;;;;;;4796380;29;20104;-89
2022/06/11 06:13:48;;;;;;;16.38;3.85;;;16.10;99.90;;;;;;4782670;29;20058;-89
2022/06/11 06:16:38;;;;;;;15.02;4.07;;;15.20;99.90;;;;;;4802189;29;20510;-87
2022/06/11 06:19:09;;;;;;;14.43;4.13;;;16.30;99.90;;;;;;4802468;29;20050;-88
2022/06/11 06:21:38;;;;;;;16.45;4.07;;;16.40;99.90;;;;;;4800405;29;20049;-90
2022/06/11 06:24:33;;;;;;;15.23;4.53;;;16.40;99.90;;;;;;4817584;29;20049;-89
2022/06/11 06:26:59;;;;;;;15.60;4.90;;;16.30;99.90;;;;;;4781863;29;20042;-88
2022/06/11 06:29:28;;;;;;;15.05;4.80;;;16.50;99.90;;;;;;4813838;29;20621;-88
2022/06/11 06:32:00;;;;;;;16.95;4.10;;;16.80;99.90;;;;;;4814216;29;20058;-88
2022/06/11 06:34:26;;;;;;;15.68;4.00;;;16.60;99.90;;;;;;4813578;29;20064;-88
2022/06/11 06:36:51;;;;;;;14.30;4.07;;;16.80;99.90;;;;;;4800728;29;20049;-86
2022/06/11 06:39:30;;;;;;;11.32;4.03;;;17.00;99.90;;;;;;4815497;29;20172;-88
2022/06/11 06:41:56;;;;;;;13.75;3.85;;;17.20;99.90;;;;;;4814191;29;20049;-88
2022/06/11 06:44:27;;;;;;;16.48;4.60;;;17.50;99.90;;;;;;4813661;29;20050;-89
2022/06/11 06:47:04;;;;;;;15.45;4.10;;;17.40;99.90;;;;;;4799557;29;20399;-88
2022/06/11 06:49:38;;;;;;;16.52;4.00;;;17.70;99.90;;;;;;4796267;29;20130;-89
2022/06/11 06:55:38;;;;;;;14.10;5.05;;;17.80;99.90;;;;;;4773068;29;20088;-89
2022/06/11 06:58:14;;;;;;;15.98;4.28;;;18.40;99.90;;;;;;4811256;29;20066;-89
2022/06/11 07:00:48;;;;;;;17.88;4.43;;;18.50;99.90;;;;;;4798874;29;20159;-90
2022/06/11 07:03:17;;;;;;;23.38;5.03;;;18.60;99.90;;;;;;4807525;29;20085;-88
2022/06/11 07:05:51;;;;;;;16.42;4.03;;;18.70;99.90;;;;;;4794970;29;20121;-89
2022/06/11 07:08:26;;;;;;;18.02;4.43;;;18.50;99.90;;;;;;4766782;29;20062;-88
2022/06/11 07:14:15;;;;;;;18.08;4.45;;;19.00;99.90;;;;;;4804921;29;19936;-88
2022/06/11 07:17:05;;;;;;;15.27;3.40;;;19.00;99.90;;;;;;4794269;29;20054;-90
2022/06/11 07:19:57;;;;;;;14.20;3.90;;;19.10;99.90;;;;;;4794925;29;20046;-90
2022/06/11 07:22:34;;;;;;;13.93;3.88;;;19.50;99.90;;;;;;4794979;29;20077;-89
2022/06/11 07:25:10;;;;;;;15.43;4.75;;;19.40;99.90;;;;;;4794769;29;20482;-90
2022/06/11 07:28:28;;;;;;;16.05;3.90;;;19.40;99.90;;;;;;4788648;29;20150;-88
2022/06/11 07:31:11;;;;;;;14.98;4.13;;;18.80;99.90;;;;;;4724873;29;20073;-90
2022/06/11 07:34:11;;;;;;;18.55;3.70;;;19.40;99.90;;;;;;4766804;29;20090;-91
2022/06/11 07:37:07;;;;;;;16.70;3.85;;;19.10;99.90;;;;;;4705106;30;20158;-90
2022/06/11 07:51:18;;;;;;;16.50;4.32;;;19.30;99.90;;;;;;4630878;31;20062;-88
2022/06/11 07:57:24;;;;;;;17.63;3.67;;;18.80;99.90;;;;;;4751475;30;20055;-90
2022/06/11 08:00:03;;;;;;;;;;;;;;;;;;;;;
2022/06/11 08:15:01;;;;;;;17.08;4.18;;;18.90;99.90;;;;;;4737350;30;20175;-88
2022/06/11 08:17:34;;;;;;;17.13;4.82;;;19.30;99.90;;;;;;4754209;30;20064;-88
2022/06/11 08:20:53;;;;;;;;;;;;;;;;;;;;;
2022/06/11 08:27:15;;;;;;;16.65;3.55;;;19.30;99.90;;;;;;4800046;29;20137;-89
2022/06/11 08:34:44;;;;;;;;;;;;;;;;;;;;;
2022/06/11 08:37:34;;;;;;;20.80;4.22;;;19.90;99.90;;;;;;4708755;30;20069;-89
2022/06/11 08:40:23;;;;;;;14.32;3.70;;;19.50;99.90;;;;;;4733375;30;20449;-88
2022/06/11 08:43:15;;;;;;;10.23;3.22;;;20.30;99.90;;;;;;4755516;30;20779;-88
2022/06/11 08:46:16;;;;;;;11.25;3.80;;;20.60;99.90;;;;;;4784425;29;20138;-91
2022/06/11 08:49:18;;;;;;;11.82;3.22;;;20.60;99.90;;;;;;4788486;29;20055;-87
2022/06/11 08:52:33;;;;;;;13.93;3.35;;;20.50;99.90;;;;;;4806251;29;20727;-88
2022/06/11 08:55:00;;;;;;;12.98;3.55;;;20.80;99.90;;;;;;4782551;29;20056;-89
2022/06/11 08:57:34;;;;;;;17.40;4.47;;;21.00;99.90;;;;;;4774075;29;20061;-88
2022/06/11 09:00:16;;;;;;;14.18;3.30;;;20.90;99.90;;;;;;4788429;29;20111;-88
2022/06/11 09:03:01;;;;;;;14.07;3.17;;;20.50;99.90;;;;;;4788954;29;20516;-88
2022/06/11 09:06:12;;;;;;;10.02;3.30;;;21.10;99.90;;;;;;4789355;29;20522;-89
2022/06/11 09:09:33;;;;;;;14.00;3.30;;;21.30;99.90;;;;;;4788580;29;20054;-89
2022/06/11 09:12:46;;;;;;;15.18;3.75;;;21.20;99.90;;;;;;4787492;29;20055;-91
2022/06/11 09:26:46;;;;;;;11.77;3.55;;;22.20;99.90;;;;;;4715668;30;20098;-89
2022/06/11 09:29:19;;;;;;;;;;;21.90;99.90;;;;;;4687385;30;20470;-90
2022/06/11 09:47:58;;;;;;;12.57;2.75;;;23.00;99.90;;;;;;4737262;30;20097;-90
2022/06/11 09:51:22;;;;;;;7.78;2.40;;;23.30;99.90;;;;;;4738951;30;20127;-89
2022/06/11 09:54:54;;;;;;;10.75;2.67;;;22.80;99.90;;;;;;4728204;30;20060;-90
2022/06/11 09:57:47;;;;;;;10.23;2.95;;;22.30;99.90;;;;;;4732593;30;20044;-90
2022/06/11 10:00:34;;;;;;;9.50;2.45;;;22.20;99.90;;;;;;4737793;30;20054;-90
2022/06/11 10:03:26;;;;;;;7.40;2.47;;;22.90;99.90;;;;;;4774138;29;20051;-90
2022/06/11 10:10:04;;;;;;;9.90;3.10;;;23.30;99.90;;;;;;4728804;30;20454;-90
2022/06/11 10:58:19;;;;;;;5.90;2.22;;;24.80;99.90;;;;;;4682650;30;20143;-92
2022/06/11 11:26:56;;;;;;;9.85;2.63;;;24.70;94.50;;;;;;4746170;30;20052;-88
2022/06/11 11:33:27;;;;;;;10.85;2.97;;;25.00;90.40;;;;;;4798624;29;20057;-91
2022/06/11 11:40:49;;;;;;;9.98;2.63;;;24.50;28.70;;;;;;4770380;30;20203;-91
2022/06/11 12:37:42;;;;;;;;;;;;;;;;;;;;;
2022/06/11 13:00:11;;;;;;;3.92;1.55;;;24.90;10.30;;;;;;4750763;30;20036;-90
2022/06/11 13:30:07;;;;;;;4.85;1.75;;;25.50;1.00;;;;;;4698838;30;20067;-92
2022/06/11 13:33:23;;;;;;;5.22;1.80;;;25.70;1.00;;;;;;4709137;30;20144;-90
2022/06/11 13:44:17;;;;;;;5.10;1.85;;;25.50;1.00;;;;;;4715548;30;20095;-90
2022/06/11 13:50:45;;;;;;;;;;;;;;;;;;;;;
2022/06/11 13:57:31;;;;;;;5.88;2.10;;;25.50;1.00;;;;;;4780286;29;20512;-91
2022/06/11 14:00:27;;;;;;;5.55;2.13;;;24.40;1.00;;;;;;4795328;29;20051;-90
2022/06/11 14:03:49;;;;;;;;;;;;;;;;;;;;;
2022/06/11 14:06:29;;;;;;;7.20;2.28;;;24.50;1.00;;;;;;4797863;29;20553;-89
2022/06/11 14:16:41;;;;;;;7.93;2.50;;;25.90;3.80;;;;;;4737468;30;20434;-91
2022/06/11 14:19:21;;;;;;;7.28;2.03;;;25.50;1.00;;;;;;4759314;29;20450;-90
2022/06/11 14:21:51;;;;;;;7.15;2.00;;;24.80;6.00;;;;;;4777640;29;20118;-88
2022/06/11 14:25:03;;;;;;;10.48;2.88;;;24.80;26.90;;;;;;4775455;29;20058;-88
2022/06/11 14:31:29;;;;;;;9.73;2.55;;;24.80;32.30;;;;;;4796588;29;20070;-90
2022/06/11 14:34:36;;;;;;;6.53;2.40;;;24.50;43.80;;;;;;4776789;29;20054;-90
2022/06/11 14:37:40;;;;;;;8.55;2.13;;;24.50;56.30;;;;;;4769105;29;20109;-88
2022/06/11 14:40:37;;;;;;;5.50;2.33;;;24.70;53.00;;;;;;4787247;29;20198;-89
2022/06/11 14:48:04;;;;;;;9.20;2.25;;;24.10;43.80;;;;;;4779196;29;19974;-89
2022/06/11 14:51:00;;;;;;;9.88;2.33;;;24.00;63.20;;;;;;4729668;30;20490;-89
2022/06/11 15:08:29;;;;;;;9.80;2.70;;;23.90;67.70;;;;;;4826114;29;20093;-90
2022/06/11 15:11:22;;;;;;;9.77;2.60;;;23.80;66.10;;;;;;4811056;29;20058;-89
2022/06/11 15:14:29;;;;;;;6.25;2.05;;;23.60;78.30;;;;;;4800105;29;20138;-90
2022/06/11 15:17:51;;;;;;;10.93;2.60;;;23.20;73.00;;;;;;4816862;29;20061;-89
2022/06/11 15:20:48;;;;;;;11.35;2.83;;;22.70;87.70;;;;;;4794159;29;20450;-89
2022/06/11 15:23:42;;;;;;;7.18;2.17;;;22.80;89.40;;;;;;4795055;29;20110;-91
2022/06/11 15:26:34;;;;;;;7.57;2.42;;;23.30;95.90;;;;;;4794418;29;20065;-91
2022/06/11 15:29:10;;;;;;;9.82;3.03;;;23.00;91.90;;;;;;4796208;29;20500;-90
2022/06/11 15:32:20;;;;;;;;;;;;;;;;;;;;;
2022/06/11 15:35:03;;;;;;;7.18;2.30;;;22.70;73.50;;;;;;4810621;29;20054;-90
2022/06/11 15:37:54;;;;;;;8.18;2.20;;;22.90;71.70;;;;;;4796151;29;20054;-92
2022/06/11 15:40:45;;;;;;;7.05;1.98;;;23.10;68.40;;;;;;4816622;29;20087;-90
2022/06/11 15:43:39;;;;;;;11.95;2.88;;;23.10;68.20;;;;;;4796323;29;20051;-91
2022/06/11 15:46:40;;;;;;;8.18;2.40;;;22.80;76.70;;;;;;4797971;29;20100;-90
2022/06/11 15:49:37;;;;;;;8.90;2.13;;;22.50;72.60;;;;;;4795152;29;20057;-90
2022/06/11 15:52:34;;;;;;;9.30;2.15;;;22.60;77.80;;;;;;4794127;29;20123;-90
2022/06/11 15:55:57;;;;;;;;;;;;;;;;;;;;;
2022/06/11 15:58:32;;;;;;;9.88;2.38;;;22.90;67.20;;;;;;4824957;29;20133;-89
2022/06/11 16:01:32;;;;;;;11.35;2.70;;;23.40;72.20;;;;;;4794348;29;20542;-89
2022/06/11 16:07:29;;;;;;;10.45;2.40;;;23.90;69.40;;;;;;4801543;29;20050;-89
2022/06/11 16:10:09;;;;;;;9.90;2.15;;;23.70;63.20;;;;;;4778842;29;20055;-90
2022/06/11 16:13:17;;;;;;;7.07;2.40;;;23.60;63.40;;;;;;4784203;29;20055;-90
2022/06/11 16:19:39;;;;;;;8.40;2.38;;;23.80;73.50;;;;;;4808690;29;20077;-89
2022/06/11 16:25:58;;;;;;;9.77;2.40;;;22.90;74.50;;;;;;4807918;29;20139;-91
2022/06/11 16:28:54;;;;;;;10.80;2.70;;;22.70;83.70;;;;;;4776867;29;20087;-89
2022/06/11 16:31:21;;;;;;;7.57;2.33;;;22.50;90.00;;;;;;4778147;29;20063;-90
2022/06/11 16:33:56;;;;;;;7.18;2.17;;;22.40;94.60;;;;;;4777103;29;20055;-90
2022/06/11 16:36:37;;;;;;;8.20;2.10;;;22.30;98.30;;;;;;4779919;29;20054;-92
2022/06/11 16:39:37;;;;;;;9.52;2.42;;;22.00;97.60;;;;;;4785813;29;20138;-91
2022/06/11 16:44:52;;;;;;;10.35;2.70;;;21.60;99.90;;;;;;4812099;29;20047;-90
2022/06/11 16:47:24;;;;;;;8.40;2.38;;;21.70;99.90;;;;;;4794154;29;20084;-90
2022/06/11 16:58:42;;;;;;;9.38;2.38;;;21.50;99.90;;;;;;4812084;29;20445;-89
2022/06/11 17:01:27;;;;;;;11.15;2.65;;;21.60;99.90;;;;;;4791675;29;20129;-91
2022/06/11 17:04:12;;;;;;;9.77;2.42;;;21.50;99.90;;;;;;4781306;29;20092;-89
2022/06/11 17:06:41;;;;;;;8.88;2.17;;;21.50;99.90;;;;;;4798630;29;20124;-90
2022/06/11 17:09:36;;;;;;;10.90;2.83;;;21.50;99.90;;;;;;4798056;29;20214;-90
2022/06/11 17:12:14;;;;;;;13.73;3.33;;;21.50;99.90;;;;;;4795029;29;20077;-90
2022/06/11 17:14:54;;;;;;;10.38;2.42;;;21.60;99.90;;;;;;4800366;29;20051;-89
2022/06/11 17:17:34;;;;;;;8.02;2.53;;;21.50;99.90;;;;;;4826037;29;20046;-92
2022/06/11 17:20:02;;;;;;;10.43;2.40;;;21.50;99.90;;;;;;4810049;29;20046;-91
2022/06/11 17:22:37;;;;;;;9.10;2.38;;;21.40;99.90;;;;;;4796775;29;20554;-90
2022/06/11 17:25:12;;;;;;;9.60;2.50;;;21.30;99.90;;;;;;4778876;29;20057;-90
2022/06/11 17:27:52;;;;;;;9.85;3.00;;;21.20;99.90;;;;;;4794247;29;20057;-91
2022/06/11 17:30:20;;;;;;;11.55;3.00;;;21.20;99.90;;;;;;4811377;29;20060;-90
2022/06/11 17:32:52;;;;;;;9.55;2.45;;;21.10;99.90;;;;;;4794188;29;20061;-90
2022/06/11 17:35:37;;;;;;;7.78;2.47;;;21.10;99.90;;;;;;4794084;29;20050;-93
2022/06/11 17:38:03;;;;;;;;;;;21.20;99.90;;;;;;4750241;29;20062;-90
2022/06/11 17:40:32;;;;;;;9.50;2.35;;;21.00;99.90;;;;;;4790853;29;19921;-93
2022/06/11 17:43:03;;;;;;;7.90;2.30;;;20.90;99.90;;;;;;4791322;29;20050;-91
2022/06/11 17:45:32;;;;;;;11.65;2.95;;;20.90;99.90;;;;;;4776588;29;20055;-90
2022/06/11 17:48:05;;;;;;;8.07;2.80;;;20.80;99.90;;;;;;4801784;29;20716;-88
2022/06/11 17:50:31;;;;;;;8.43;2.67;;;20.80;99.90;;;;;;4808588;29;20097;-92
2022/06/11 17:53:01;;;;;;;7.60;2.20;;;20.70;99.90;;;;;;4793835;29;20086;-91
2022/06/11 17:55:29;;;;;;;10.23;2.63;;;19.80;99.90;;;;;;4779833;29;20080;-89
2022/06/11 17:57:58;;;;;;;9.45;2.72;;;20.60;99.90;;;;;;4795563;29;20489;-90
2022/06/11 18:00:34;;;;;;;9.20;3.15;;;21.00;99.90;;;;;;4790483;29;20065;-89
2022/06/11 18:03:20;;;;;;;11.10;2.83;;;20.70;99.90;;;;;;4795133;29;20055;-88
2022/06/11 18:05:49;;;;;;;9.15;2.50;;;20.60;99.90;;;;;;4797681;29;20062;-90
2022/06/11 18:08:21;;;;;;;8.98;3.00;;;20.20;99.90;;;;;;4812785;29;20061;-92
2022/06/11 18:11:26;;;;;;;10.23;2.65;;;20.50;99.90;;;;;;4797464;29;20058;-93
2022/06/11 18:13:55;;;;;;;10.45;2.95;;;19.90;99.90;;;;;;4788813;29;20046;-90
2022/06/11 18:16:23;;;;;;;11.35;2.72;;;20.40;99.90;;;;;;4767621;29;20419;-91
2022/06/11 18:18:55;;;;;;;10.82;3.00;;;20.30;99.90;;;;;;4783345;29;20062;-92
2022/06/11 18:27:20;;;;;;;12.07;2.88;;;20.20;99.90;;;;;;4799921;29;20050;-91
2022/06/11 18:30:08;;;;;;;13.18;3.28;;;20.50;99.90;;;;;;4782719;29;20062;-92
2022/06/11 18:36:58;;;;;;;23.05;3.47;;;20.10;99.90;;;;;;4752108;30;20055;-91
2022/06/11 18:39:46;;;;;;;12.02;2.70;;;19.90;99.90;;;;;;4786477;29;20115;-92
2022/06/11 18:42:15;;;;;;;9.73;3.17;;;19.80;99.90;;;;;;4795938;29;20050;-89
2022/06/11 18:44:50;;;;;;;9.43;3.10;;;19.70;99.90;;;;;;4779408;29;20050;-91
2022/06/11 18:47:30;;;;;;;10.60;2.78;;;19.70;99.90;;;;;;4797753;29;20085;-92
2022/06/11 18:50:17;;;;;;;10.80;2.90;;;19.60;99.90;;;;;;4767612;29;20054;-90
2022/06/11 18:52:43;;;;;;;11.45;3.72;;;19.60;99.90;;;;;;4801369;29;20054;-91
2022/06/11 18:55:20;;;;;;;10.93;2.83;;;19.50;99.90;;;;;;4796652;29;20050;-91
2022/06/11 18:57:46;;;;;;;10.00;2.53;;;19.30;99.90;;;;;;4781982;29;20046;-90
2022/06/11 19:00:20;;;;;;;11.98;3.20;;;19.40;99.90;;;;;;4796440;29;20098;-89
2022/06/11 19:02:51;;;;;;;10.00;2.83;;;19.30;99.90;;;;;;4797375;29;20065;-91
2022/06/11 19:05:25;;;;;;;10.88;2.83;;;19.20;99.90;;;;;;4796950;29;20287;-90
2022/06/11 19:07:51;;;;;;;8.27;3.00;;;19.20;99.90;;;;;;4797674;29;20069;-91
2022/06/11 19:10:21;;;;;;;9.00;2.67;;;19.10;99.90;;;;;;4810785;29;20099;-92
2022/06/11 19:12:54;;;;;;;9.43;2.53;;;19.00;99.90;;;;;;4794713;29;20055;-90
2022/06/11 19:15:32;;;;;;;8.10;2.67;;;19.00;99.90;;;;;;4797213;29;20518;-89
2022/06/11 19:18:12;;;;;;;10.20;2.58;;;18.90;99.90;;;;;;4798230;29;20050;-90
2022/06/11 19:20:45;;;;;;;9.98;3.05;;;18.80;99.90;;;;;;4797260;29;20057;-91
2022/06/11 19:23:14;;;;;;;13.35;3.90;;;18.70;99.90;;;;;;4794009;29;20153;-90
2022/06/11 19:25:45;;;;;;;11.77;4.18;;;18.60;99.90;;;;;;4816891;29;20137;-90
2022/06/11 19:28:13;;;;;;;11.27;3.90;;;18.60;99.90;;;;;;4798952;29;20746;-91